sensor_id;sensor_type;location;lat;lon;timestamp;temperature;humidity
27413;DHT22;14871;52.702;5.230;2023-03-17T00:01:36;10.00;99.90
27413;DHT22;14871;52.702;5.230;2023-03-17T00:04:02;10.10;99.90
27413;DHT22;14871;52.702;5.230;2023-03-17T00:06:29;10.10;99.90
27413;DHT22;14871;52.702;5.230;2023-03-17T00:08:56;10.20;99.90
27413;DHT22;14871;52.702;5.230;2023-03-17T00:11:22;10.10;99.90
27413;DHT22;14871;52.702;5.230;2023-03-17T00:13:48;10.20;99.90
27413;DHT22;14871;52.702;5.230;2023-03-17T00:16:18;10.20;99.90
27413;DHT22;14871;52.702;5.230;2023-03-17T00:18:45;10.10;99.90
27413;DHT22;14871;52.702;5.230;2023-03-17T00:21:16;10.20;99.90
27413;DHT22;14871;52.702;5.230;2023-03-17T00:23:49;10.30;99.90
27413;DHT22;14871;52.702;5.230;2023-03-17T00:26:16;10.30;99.90
27413;DHT22;14871;52.702;5.230;2023-03-17T00:28:42;10.30;99.90
27413;DHT22;14871;52.702;5.230;2023-03-17T00:31:14;10.20;99.90
27413;DHT22;14871;52.702;5.230;2023-03-17T00:33:40;10.20;99.90
27413;DHT22;14871;52.702;5.230;2023-03-17T00:36:11;10.10;99.90
27413;DHT22;14871;52.702;5.230;2023-03-17T00:38:37;10.40;99.90
27413;DHT22;14871;52.702;5.230;2023-03-17T00:41:04;10.10;99.90
27413;DHT22;14871;52.702;5.230;2023-03-17T00:43:30;10.20;99.90
27413;DHT22;14871;52.702;5.230;2023-03-17T00:45:55;10.20;99.90
27413;DHT22;14871;52.702;5.230;2023-03-17T00:48:21;10.00;99.90
27413;DHT22;14871;52.702;5.230;2023-03-17T00:50:49;10.10;99.90
27413;DHT22;14871;52.702;5.230;2023-03-17T00:53:16;10.20;99.90
27413;DHT22;14871;52.702;5.230;2023-03-17T00:55:43;10.00;99.90
27413;DHT22;14871;52.702;5.230;2023-03-17T00:58:22;10.10;99.90
27413;DHT22;14871;52.702;5.230;2023-03-17T01:00:49;10.00;99.90
27413;DHT22;14871;52.702;5.230;2023-03-17T01:03:15;9.90;99.90
27413;DHT22;14871;52.702;5.230;2023-03-17T01:05:41;9.80;99.90
27413;DHT22;14871;52.702;5.230;2023-03-17T01:08:07;10.00;99.90
27413;DHT22;14871;52.702;5.230;2023-03-17T01:10:33;10.10;99.90
27413;DHT22;14871;52.702;5.230;2023-03-17T01:12:59;10.00;99.90
27413;DHT22;14871;52.702;5.230;2023-03-17T01:15:28;10.10;99.90
27413;DHT22;14871;52.702;5.230;2023-03-17T01:17:54;10.20;99.90
27413;DHT22;14871;52.702;5.230;2023-03-17T01:20:34;10.00;99.90
27413;DHT22;14871;52.702;5.230;2023-03-17T01:23:00;10.00;99.90
27413;DHT22;14871;52.702;5.230;2023-03-17T01:25:29;10.10;99.90
27413;DHT22;14871;52.702;5.230;2023-03-17T01:27:56;9.90;99.90
27413;DHT22;14871;52.702;5.230;2023-03-17T01:30:24;9.80;99.90
27413;DHT22;14871;52.702;5.230;2023-03-17T01:32:50;9.80;99.90
27413;DHT22;14871;52.702;5.230;2023-03-17T01:35:17;9.90;99.90
27413;DHT22;14871;52.702;5.230;2023-03-17T01:37:44;9.90;99.90
27413;DHT22;14871;52.702;5.230;2023-03-17T01:40:20;10.00;99.90
27413;DHT22;14871;52.702;5.230;2023-03-17T01:48:57;10.00;99.90
27413;DHT22;14871;52.702;5.230;2023-03-17T01:54:11;9.90;99.90
27413;DHT22;14871;52.702;5.230;2023-03-17T01:56:41;10.00;99.90
27413;DHT22;14871;52.702;5.230;2023-03-17T01:59:12;10.10;99.90
27413;DHT22;14871;52.702;5.230;2023-03-17T02:01:43;10.10;99.90
27413;DHT22;14871;52.702;5.230;2023-03-17T02:04:10;10.20;99.90
27413;DHT22;14871;52.702;5.230;2023-03-17T02:06:36;10.20;99.90
27413;DHT22;14871;52.702;5.230;2023-03-17T02:09:03;10.00;99.90
27413;DHT22;14871;52.702;5.230;2023-03-17T02:11:29;10.00;99.90
27413;DHT22;14871;52.702;5.230;2023-03-17T02:13:55;10.10;99.90
27413;DHT22;14871;52.702;5.230;2023-03-17T02:16:21;9.80;99.90
27413;DHT22;14871;52.702;5.230;2023-03-17T02:18:47;10.00;99.90
27413;DHT22;14871;52.702;5.230;2023-03-17T02:23:59;9.80;99.90
27413;DHT22;14871;52.702;5.230;2023-03-17T02:26:25;9.80;99.90
27413;DHT22;14871;52.702;5.230;2023-03-17T02:28:52;9.80;99.90
27413;DHT22;14871;52.702;5.230;2023-03-17T02:31:19;9.80;99.90
27413;DHT22;14871;52.702;5.230;2023-03-17T02:33:45;9.90;99.90
27413;DHT22;14871;52.702;5.230;2023-03-17T02:36:10;9.80;99.90
27413;DHT22;14871;52.702;5.230;2023-03-17T02:38:37;9.80;99.90
27413;DHT22;14871;52.702;5.230;2023-03-17T02:41:02;9.80;99.90
27413;DHT22;14871;52.702;5.230;2023-03-17T02:43:28;9.80;99.90
27413;DHT22;14871;52.702;5.230;2023-03-17T02:45:53;9.70;99.90
27413;DHT22;14871;52.702;5.230;2023-03-17T02:48:19;9.60;99.90
27413;DHT22;14871;52.702;5.230;2023-03-17T02:50:47;9.60;99.90
27413;DHT22;14871;52.702;5.230;2023-03-17T02:53:12;9.80;99.90
27413;DHT22;14871;52.702;5.230;2023-03-17T02:55:38;9.90;99.90
27413;DHT22;14871;52.702;5.230;2023-03-17T02:58:03;9.80;99.90
27413;DHT22;14871;52.702;5.230;2023-03-17T03:00:29;9.80;99.90
27413;DHT22;14871;52.702;5.230;2023-03-17T03:02:55;9.70;99.90
27413;DHT22;14871;52.702;5.230;2023-03-17T03:05:21;9.70;99.90
27413;DHT22;14871;52.702;5.230;2023-03-17T03:07:46;9.70;99.90
27413;DHT22;14871;52.702;5.230;2023-03-17T03:10:12;9.70;99.90
27413;DHT22;14871;52.702;5.230;2023-03-17T03:12:38;9.70;99.90
27413;DHT22;14871;52.702;5.230;2023-03-17T03:15:05;9.60;99.90
27413;DHT22;14871;52.702;5.230;2023-03-17T03:17:31;9.70;99.90
27413;DHT22;14871;52.702;5.230;2023-03-17T03:19:57;9.80;99.90
27413;DHT22;14871;52.702;5.230;2023-03-17T03:22:23;9.80;99.90
27413;DHT22;14871;52.702;5.230;2023-03-17T03:24:48;9.80;99.90
27413;DHT22;14871;52.702;5.230;2023-03-17T03:27:14;9.70;99.90
27413;DHT22;14871;52.702;5.230;2023-03-17T03:29:41;10.00;99.90
27413;DHT22;14871;52.702;5.230;2023-03-17T03:32:06;9.90;99.90
27413;DHT22;14871;52.702;5.230;2023-03-17T03:34:32;9.80;99.90
27413;DHT22;14871;52.702;5.230;2023-03-17T03:36:58;9.90;99.90
27413;DHT22;14871;52.702;5.230;2023-03-17T03:39:24;9.90;99.90
27413;DHT22;14871;52.702;5.230;2023-03-17T03:41:50;9.90;99.90
27413;DHT22;14871;52.702;5.230;2023-03-17T03:44:15;9.80;99.90
27413;DHT22;14871;52.702;5.230;2023-03-17T03:46:41;9.90;99.90
27413;DHT22;14871;52.702;5.230;2023-03-17T03:49:06;9.90;99.90
27413;DHT22;14871;52.702;5.230;2023-03-17T03:51:32;9.80;99.90
27413;DHT22;14871;52.702;5.230;2023-03-17T03:53:58;9.80;99.90
27413;DHT22;14871;52.702;5.230;2023-03-17T03:56:23;9.90;99.90
27413;DHT22;14871;52.702;5.230;2023-03-17T03:58:49;10.10;99.90
27413;DHT22;14871;52.702;5.230;2023-03-17T04:01:15;10.10;99.90
27413;DHT22;14871;52.702;5.230;2023-03-17T04:03:42;10.00;99.90
27413;DHT22;14871;52.702;5.230;2023-03-17T04:06:07;9.90;99.90
27413;DHT22;14871;52.702;5.230;2023-03-17T04:08:33;10.00;99.90
27413;DHT22;14871;52.702;5.230;2023-03-17T04:10:59;10.00;99.90
27413;DHT22;14871;52.702;5.230;2023-03-17T04:13:24;9.90;99.90
27413;DHT22;14871;52.702;5.230;2023-03-17T04:15:50;10.00;99.90
27413;DHT22;14871;52.702;5.230;2023-03-17T04:18:16;10.00;99.90
27413;DHT22;14871;52.702;5.230;2023-03-17T04:20:41;10.10;99.90
27413;DHT22;14871;52.702;5.230;2023-03-17T04:23:07;10.00;99.90
27413;DHT22;14871;52.702;5.230;2023-03-17T04:25:32;10.10;99.90
27413;DHT22;14871;52.702;5.230;2023-03-17T04:27:58;9.90;99.90
27413;DHT22;14871;52.702;5.230;2023-03-17T04:30:24;10.20;99.90
27413;DHT22;14871;52.702;5.230;2023-03-17T04:32:49;10.20;99.90
27413;DHT22;14871;52.702;5.230;2023-03-17T04:35:19;10.30;99.90
27413;DHT22;14871;52.702;5.230;2023-03-17T04:37:46;10.30;99.90
27413;DHT22;14871;52.702;5.230;2023-03-17T04:40:13;10.40;99.90
27413;DHT22;14871;52.702;5.230;2023-03-17T04:42:40;10.20;99.90
27413;DHT22;14871;52.702;5.230;2023-03-17T04:45:07;10.10;99.90
27413;DHT22;14871;52.702;5.230;2023-03-17T04:47:34;10.30;99.90
27413;DHT22;14871;52.702;5.230;2023-03-17T04:50:00;10.40;99.90
27413;DHT22;14871;52.702;5.230;2023-03-17T04:52:26;10.30;99.90
27413;DHT22;14871;52.702;5.230;2023-03-17T04:54:51;10.30;99.90
27413;DHT22;14871;52.702;5.230;2023-03-17T04:57:17;10.30;99.90
27413;DHT22;14871;52.702;5.230;2023-03-17T04:59:43;10.40;99.90
27413;DHT22;14871;52.702;5.230;2023-03-17T05:02:08;10.30;99.90
27413;DHT22;14871;52.702;5.230;2023-03-17T05:04:34;10.40;99.90
27413;DHT22;14871;52.702;5.230;2023-03-17T05:07:00;10.40;99.90
27413;DHT22;14871;52.702;5.230;2023-03-17T05:09:27;10.40;99.90
27413;DHT22;14871;52.702;5.230;2023-03-17T05:11:53;10.50;99.90
27413;DHT22;14871;52.702;5.230;2023-03-17T05:14:19;10.30;99.90
27413;DHT22;14871;52.702;5.230;2023-03-17T05:16:48;10.30;99.90
27413;DHT22;14871;52.702;5.230;2023-03-17T05:19:15;10.50;99.90
27413;DHT22;14871;52.702;5.230;2023-03-17T05:21:41;10.40;99.90
27413;DHT22;14871;52.702;5.230;2023-03-17T05:24:07;10.50;99.90
27413;DHT22;14871;52.702;5.230;2023-03-17T05:26:33;10.50;99.90
27413;DHT22;14871;52.702;5.230;2023-03-17T05:28:59;10.50;99.90
27413;DHT22;14871;52.702;5.230;2023-03-17T05:31:24;10.40;99.90
27413;DHT22;14871;52.702;5.230;2023-03-17T05:33:50;10.40;99.90
27413;DHT22;14871;52.702;5.230;2023-03-17T05:36:16;10.60;99.90
27413;DHT22;14871;52.702;5.230;2023-03-17T05:38:43;10.50;99.90
27413;DHT22;14871;52.702;5.230;2023-03-17T05:41:08;10.60;99.90
27413;DHT22;14871;52.702;5.230;2023-03-17T05:43:35;10.50;99.90
27413;DHT22;14871;52.702;5.230;2023-03-17T05:46:02;10.60;99.90
27413;DHT22;14871;52.702;5.230;2023-03-17T05:48:28;10.60;99.90
27413;DHT22;14871;52.702;5.230;2023-03-17T05:50:53;10.60;99.90
27413;DHT22;14871;52.702;5.230;2023-03-17T05:53:19;10.50;99.90
27413;DHT22;14871;52.702;5.230;2023-03-17T05:55:45;10.50;99.90
27413;DHT22;14871;52.702;5.230;2023-03-17T05:58:12;10.40;99.90
27413;DHT22;14871;52.702;5.230;2023-03-17T06:00:40;10.20;99.90
27413;DHT22;14871;52.702;5.230;2023-03-17T06:03:05;10.20;99.90
27413;DHT22;14871;52.702;5.230;2023-03-17T06:05:32;10.10;99.90
27413;DHT22;14871;52.702;5.230;2023-03-17T06:07:58;10.00;99.90
27413;DHT22;14871;52.702;5.230;2023-03-17T06:10:23;10.00;99.90
27413;DHT22;14871;52.702;5.230;2023-03-17T06:12:49;10.00;99.90
27413;DHT22;14871;52.702;5.230;2023-03-17T06:15:15;10.10;99.90
27413;DHT22;14871;52.702;5.230;2023-03-17T06:17:41;10.20;99.90
27413;DHT22;14871;52.702;5.230;2023-03-17T06:20:08;10.40;99.90
27413;DHT22;14871;52.702;5.230;2023-03-17T06:22:33;10.30;99.90
27413;DHT22;14871;52.702;5.230;2023-03-17T06:24:59;10.30;99.90
27413;DHT22;14871;52.702;5.230;2023-03-17T06:27:25;10.00;99.90
27413;DHT22;14871;52.702;5.230;2023-03-17T06:29:51;10.00;99.90
27413;DHT22;14871;52.702;5.230;2023-03-17T06:32:17;10.00;99.90
27413;DHT22;14871;52.702;5.230;2023-03-17T06:34:43;10.00;99.90
27413;DHT22;14871;52.702;5.230;2023-03-17T06:37:09;9.80;99.90
27413;DHT22;14871;52.702;5.230;2023-03-17T06:39:35;9.80;99.90
27413;DHT22;14871;52.702;5.230;2023-03-17T06:42:02;9.80;99.90
27413;DHT22;14871;52.702;5.230;2023-03-17T06:44:28;9.90;99.90
27413;DHT22;14871;52.702;5.230;2023-03-17T06:46:54;9.80;99.90
27413;DHT22;14871;52.702;5.230;2023-03-17T06:49:20;10.10;99.90
27413;DHT22;14871;52.702;5.230;2023-03-17T06:51:46;10.30;99.90
27413;DHT22;14871;52.702;5.230;2023-03-17T06:54:11;10.40;99.90
27413;DHT22;14871;52.702;5.230;2023-03-17T06:56:37;10.60;99.90
27413;DHT22;14871;52.702;5.230;2023-03-17T06:59:03;10.70;99.90
27413;DHT22;14871;52.702;5.230;2023-03-17T07:01:29;10.60;99.90
27413;DHT22;14871;52.702;5.230;2023-03-17T07:03:55;10.40;99.90
27413;DHT22;14871;52.702;5.230;2023-03-17T07:06:21;10.30;99.90
27413;DHT22;14871;52.702;5.230;2023-03-17T07:08:48;10.50;99.90
27413;DHT22;14871;52.702;5.230;2023-03-17T07:11:13;10.40;99.90
27413;DHT22;14871;52.702;5.230;2023-03-17T07:13:40;10.30;99.90
27413;DHT22;14871;52.702;5.230;2023-03-17T07:16:06;10.30;99.90
27413;DHT22;14871;52.702;5.230;2023-03-17T07:18:32;10.20;99.90
27413;DHT22;14871;52.702;5.230;2023-03-17T07:20:59;10.10;99.90
27413;DHT22;14871;52.702;5.230;2023-03-17T07:23:27;10.10;99.90
27413;DHT22;14871;52.702;5.230;2023-03-17T07:25:53;10.20;99.90
27413;DHT22;14871;52.702;5.230;2023-03-17T07:28:19;10.40;99.90
27413;DHT22;14871;52.702;5.230;2023-03-17T07:30:47;10.60;99.90
27413;DHT22;14871;52.702;5.230;2023-03-17T07:33:14;10.60;99.90
27413;DHT22;14871;52.702;5.230;2023-03-17T07:35:42;10.70;99.90
27413;DHT22;14871;52.702;5.230;2023-03-17T07:38:08;10.80;99.90
27413;DHT22;14871;52.702;5.230;2023-03-17T07:40:35;10.80;99.90
27413;DHT22;14871;52.702;5.230;2023-03-17T07:43:01;10.90;99.90
27413;DHT22;14871;52.702;5.230;2023-03-17T07:45:27;11.10;99.90
27413;DHT22;14871;52.702;5.230;2023-03-17T07:47:53;11.10;99.90
27413;DHT22;14871;52.702;5.230;2023-03-17T07:50:19;11.10;99.90
27413;DHT22;14871;52.702;5.230;2023-03-17T07:52:45;11.40;99.90
27413;DHT22;14871;52.702;5.230;2023-03-17T07:55:10;11.30;99.90
27413;DHT22;14871;52.702;5.230;2023-03-17T07:57:37;11.30;99.90
27413;DHT22;14871;52.702;5.230;2023-03-17T08:00:04;11.50;99.90
27413;DHT22;14871;52.702;5.230;2023-03-17T08:02:33;11.90;99.90
27413;DHT22;14871;52.702;5.230;2023-03-17T08:04:59;11.90;99.90
27413;DHT22;14871;52.702;5.230;2023-03-17T08:07:26;12.00;99.90
27413;DHT22;14871;52.702;5.230;2023-03-17T08:09:51;12.20;99.90
27413;DHT22;14871;52.702;5.230;2023-03-17T08:12:18;12.40;99.90
27413;DHT22;14871;52.702;5.230;2023-03-17T08:14:44;12.70;99.90
27413;DHT22;14871;52.702;5.230;2023-03-17T08:17:10;12.60;99.90
27413;DHT22;14871;52.702;5.230;2023-03-17T08:19:35;12.70;99.90
27413;DHT22;14871;52.702;5.230;2023-03-17T08:22:01;12.70;99.90
27413;DHT22;14871;52.702;5.230;2023-03-17T08:24:27;12.90;99.90
27413;DHT22;14871;52.702;5.230;2023-03-17T08:26:52;13.00;99.90
27413;DHT22;14871;52.702;5.230;2023-03-17T08:29:18;13.10;99.90
27413;DHT22;14871;52.702;5.230;2023-03-17T08:31:44;13.30;99.90
27413;DHT22;14871;52.702;5.230;2023-03-17T08:34:10;13.40;99.90
27413;DHT22;14871;52.702;5.230;2023-03-17T08:36:36;13.50;99.90
27413;DHT22;14871;52.702;5.230;2023-03-17T08:39:03;13.60;99.90
27413;DHT22;14871;52.702;5.230;2023-03-17T08:41:29;13.70;99.70
27413;DHT22;14871;52.702;5.230;2023-03-17T08:43:56;13.50;99.90
27413;DHT22;14871;52.702;5.230;2023-03-17T08:46:27;13.40;99.90
27413;DHT22;14871;52.702;5.230;2023-03-17T08:48:55;13.20;99.90
27413;DHT22;14871;52.702;5.230;2023-03-17T08:51:23;12.90;99.90
27413;DHT22;14871;52.702;5.230;2023-03-17T08:53:50;12.90;99.90
27413;DHT22;14871;52.702;5.230;2023-03-17T08:56:16;12.90;99.90
27413;DHT22;14871;52.702;5.230;2023-03-17T08:58:42;13.10;99.90
27413;DHT22;14871;52.702;5.230;2023-03-17T09:01:08;13.20;99.90
27413;DHT22;14871;52.702;5.230;2023-03-17T09:03:36;13.50;99.90
27413;DHT22;14871;52.702;5.230;2023-03-17T09:06:04;13.80;99.90
27413;DHT22;14871;52.702;5.230;2023-03-17T09:08:32;14.10;99.90
27413;DHT22;14871;52.702;5.230;2023-03-17T09:10:59;14.20;99.80
27413;DHT22;14871;52.702;5.230;2023-03-17T09:13:25;14.40;99.60
27413;DHT22;14871;52.702;5.230;2023-03-17T09:15:52;14.80;99.20
27413;DHT22;14871;52.702;5.230;2023-03-17T09:18:18;14.90;98.60
27413;DHT22;14871;52.702;5.230;2023-03-17T09:20:44;15.00;98.30
27413;DHT22;14871;52.702;5.230;2023-03-17T09:23:11;15.00;98.10
27413;DHT22;14871;52.702;5.230;2023-03-17T09:25:38;15.10;97.60
27413;DHT22;14871;52.702;5.230;2023-03-17T09:28:05;15.30;97.60
27413;DHT22;14871;52.702;5.230;2023-03-17T09:30:32;15.60;96.80
27413;DHT22;14871;52.702;5.230;2023-03-17T09:32:58;15.60;96.70
27413;DHT22;14871;52.702;5.230;2023-03-17T09:35:25;15.70;96.40
27413;DHT22;14871;52.702;5.230;2023-03-17T09:37:52;15.80;96.10
27413;DHT22;14871;52.702;5.230;2023-03-17T09:40:20;15.70;95.50
27413;DHT22;14871;52.702;5.230;2023-03-17T09:42:52;15.80;95.70
27413;DHT22;14871;52.702;5.230;2023-03-17T09:48:12;16.50;94.30
27413;DHT22;14871;52.702;5.230;2023-03-17T09:51:01;16.90;93.40
27413;DHT22;14871;52.702;5.230;2023-03-17T09:53:46;17.00;93.10
27413;DHT22;14871;52.702;5.230;2023-03-17T09:56:15;16.80;93.40
27413;DHT22;14871;52.702;5.230;2023-03-17T10:01:39;17.00;93.10
27413;DHT22;14871;52.702;5.230;2023-03-17T10:04:08;17.00;93.10
27413;DHT22;14871;52.702;5.230;2023-03-17T10:06:49;17.30;92.40
27413;DHT22;14871;52.702;5.230;2023-03-17T10:12:56;17.60;92.10
27413;DHT22;14871;52.702;5.230;2023-03-17T10:15:00;18.00;92.00
27413;DHT22;14871;52.702;5.230;2023-03-17T10:17:34;17.90;91.40
27413;DHT22;14871;52.702;5.230;2023-03-17T10:22:56;17.10;92.00
27413;DHT22;14871;52.702;5.230;2023-03-17T10:25:28;16.80;92.40
27413;DHT22;14871;52.702;5.230;2023-03-17T10:28:01;16.80;92.60
27413;DHT22;14871;52.702;5.230;2023-03-17T10:30:31;17.00;92.80
27413;DHT22;14871;52.702;5.230;2023-03-17T10:32:59;17.40;92.80
27413;DHT22;14871;52.702;5.230;2023-03-17T10:35:25;17.80;92.60
27413;DHT22;14871;52.702;5.230;2023-03-17T10:37:51;18.20;92.20
27413;DHT22;14871;52.702;5.230;2023-03-17T10:42:47;18.70;91.70
27413;DHT22;14871;52.702;5.230;2023-03-17T10:45:23;19.10;91.00
27413;DHT22;14871;52.702;5.230;2023-03-17T10:47:54;19.00;91.30
27413;DHT22;14871;52.702;5.230;2023-03-17T10:50:28;19.20;91.30
27413;DHT22;14871;52.702;5.230;2023-03-17T10:55:40;19.60;91.10
27413;DHT22;14871;52.702;5.230;2023-03-17T10:58:16;19.90;90.60
27413;DHT22;14871;52.702;5.230;2023-03-17T11:01:09;19.90;90.00
27413;DHT22;14871;52.702;5.230;2023-03-17T11:03:39;19.80;90.40
27413;DHT22;14871;52.702;5.230;2023-03-17T11:06:09;19.80;89.30
27413;DHT22;14871;52.702;5.230;2023-03-17T11:11:26;19.50;90.50
27413;DHT22;14871;52.702;5.230;2023-03-17T11:25:39;18.90;91.40
27413;DHT22;14871;52.702;5.230;2023-03-17T11:31:38;18.50;92.60
27413;DHT22;14871;52.702;5.230;2023-03-17T11:39:27;19.10;91.90
27413;DHT22;14871;52.702;5.230;2023-03-17T11:44:52;18.90;92.20
27413;DHT22;14871;52.702;5.230;2023-03-17T11:47:40;19.00;92.60
27413;DHT22;14871;52.702;5.230;2023-03-17T11:50:37;19.40;92.40
27413;DHT22;14871;52.702;5.230;2023-03-17T11:55:55;19.70;91.50
27413;DHT22;14871;52.702;5.230;2023-03-17T11:58:31;19.50;91.90
27413;DHT22;14871;52.702;5.230;2023-03-17T12:00:59;19.40;91.60
27413;DHT22;14871;52.702;5.230;2023-03-17T12:06:16;19.20;91.50
27413;DHT22;14871;52.702;5.230;2023-03-17T12:08:52;18.90;92.10
27413;DHT22;14871;52.702;5.230;2023-03-17T12:11:23;18.90;92.50
27413;DHT22;14871;52.702;5.230;2023-03-17T12:16:39;18.60;93.00
27413;DHT22;14871;52.702;5.230;2023-03-17T12:21:52;18.70;92.80
27413;DHT22;14871;52.702;5.230;2023-03-17T12:32:21;18.60;93.50
27413;DHT22;14871;52.702;5.230;2023-03-17T12:37:17;19.20;94.10
27413;DHT22;14871;52.702;5.230;2023-03-17T12:40:15;19.70;92.60
27413;DHT22;14871;52.702;5.230;2023-03-17T12:42:51;19.90;92.60
27413;DHT22;14871;52.702;5.230;2023-03-17T12:45:36;20.20;92.80
27413;DHT22;14871;52.702;5.230;2023-03-17T12:53:49;21.70;89.40
27413;DHT22;14871;52.702;5.230;2023-03-17T12:56:26;22.00;88.90
27413;DHT22;14871;52.702;5.230;2023-03-17T12:59:04;22.10;87.90
27413;DHT22;14871;52.702;5.230;2023-03-17T13:01:44;22.20;86.90
27413;DHT22;14871;52.702;5.230;2023-03-17T13:06:51;21.10;87.30
27413;DHT22;14871;52.702;5.230;2023-03-17T13:11:57;20.60;90.00
27413;DHT22;14871;52.702;5.230;2023-03-17T13:14:26;20.20;88.90
27413;DHT22;14871;52.702;5.230;2023-03-17T13:25:31;19.30;90.60
27413;DHT22;14871;52.702;5.230;2023-03-17T13:33:20;19.40;90.50
27413;DHT22;14871;52.702;5.230;2023-03-17T13:36:12;19.30;90.40
27413;DHT22;14871;52.702;5.230;2023-03-17T13:46:44;18.90;91.90
27413;DHT22;14871;52.702;5.230;2023-03-17T13:51:53;18.70;91.40
27413;DHT22;14871;52.702;5.230;2023-03-17T13:56:57;18.50;91.60
27413;DHT22;14871;52.702;5.230;2023-03-17T13:59:52;18.60;91.70
27413;DHT22;14871;52.702;5.230;2023-03-17T14:02:21;18.70;91.80
27413;DHT22;14871;52.702;5.230;2023-03-17T14:04:54;18.70;92.00
27413;DHT22;14871;52.702;5.230;2023-03-17T14:07:23;18.70;92.40
27413;DHT22;14871;52.702;5.230;2023-03-17T14:09:51;18.90;92.10
27413;DHT22;14871;52.702;5.230;2023-03-17T14:12:31;18.90;91.40
27413;DHT22;14871;52.702;5.230;2023-03-17T14:17:44;18.70;91.80
27413;DHT22;14871;52.702;5.230;2023-03-17T14:22:42;18.30;92.40
27413;DHT22;14871;52.702;5.230;2023-03-17T14:25:16;18.20;92.60
27413;DHT22;14871;52.702;5.230;2023-03-17T14:27:44;18.40;92.40
27413;DHT22;14871;52.702;5.230;2023-03-17T14:30:22;18.50;92.30
27413;DHT22;14871;52.702;5.230;2023-03-17T14:35:43;18.40;92.10
27413;DHT22;14871;52.702;5.230;2023-03-17T14:38:30;18.40;92.50
27413;DHT22;14871;52.702;5.230;2023-03-17T14:41:14;18.40;92.30
27413;DHT22;14871;52.702;5.230;2023-03-17T14:43:41;18.30;92.40
27413;DHT22;14871;52.702;5.230;2023-03-17T14:46:21;18.30;92.50
27413;DHT22;14871;52.702;5.230;2023-03-17T14:48:49;18.40;92.30
27413;DHT22;14871;52.702;5.230;2023-03-17T14:54:03;18.60;92.50
27413;DHT22;14871;52.702;5.230;2023-03-17T14:56:37;18.80;92.20
27413;DHT22;14871;52.702;5.230;2023-03-17T14:59:18;18.70;92.00
27413;DHT22;14871;52.702;5.230;2023-03-17T15:01:46;18.80;92.20
27413;DHT22;14871;52.702;5.230;2023-03-17T15:04:19;18.90;92.50
27413;DHT22;14871;52.702;5.230;2023-03-17T15:06:56;19.10;92.20
27413;DHT22;14871;52.702;5.230;2023-03-17T15:09:37;19.20;91.80
27413;DHT22;14871;52.702;5.230;2023-03-17T15:14:43;19.20;91.90
27413;DHT22;14871;52.702;5.230;2023-03-17T15:17:31;19.30;91.80
27413;DHT22;14871;52.702;5.230;2023-03-17T15:20:03;19.10;91.70
27413;DHT22;14871;52.702;5.230;2023-03-17T15:22:45;19.10;91.70
27413;DHT22;14871;52.702;5.230;2023-03-17T15:25:38;19.00;91.80
27413;DHT22;14871;52.702;5.230;2023-03-17T15:28:14;19.10;91.80
27413;DHT22;14871;52.702;5.230;2023-03-17T15:30:46;19.10;92.00
27413;DHT22;14871;52.702;5.230;2023-03-17T15:33:37;19.10;92.10
27413;DHT22;14871;52.702;5.230;2023-03-17T15:36:04;19.00;91.80
27413;DHT22;14871;52.702;5.230;2023-03-17T15:38:30;18.90;91.90
27413;DHT22;14871;52.702;5.230;2023-03-17T15:40:56;18.90;91.80
27413;DHT22;14871;52.702;5.230;2023-03-17T15:43:22;18.80;92.30
27413;DHT22;14871;52.702;5.230;2023-03-17T15:46:09;18.70;91.90
27413;DHT22;14871;52.702;5.230;2023-03-17T15:48:39;18.60;92.00
27413;DHT22;14871;52.702;5.230;2023-03-17T15:51:06;18.60;92.20
27413;DHT22;14871;52.702;5.230;2023-03-17T15:53:32;18.50;92.20
27413;DHT22;14871;52.702;5.230;2023-03-17T15:55:58;18.50;92.40
27413;DHT22;14871;52.702;5.230;2023-03-17T15:58:24;18.50;92.30
27413;DHT22;14871;52.702;5.230;2023-03-17T16:00:53;18.40;92.50
27413;DHT22;14871;52.702;5.230;2023-03-17T16:03:28;18.40;92.60
27413;DHT22;14871;52.702;5.230;2023-03-17T16:05:54;18.40;92.60
27413;DHT22;14871;52.702;5.230;2023-03-17T16:08:20;18.50;92.70
27413;DHT22;14871;52.702;5.230;2023-03-17T16:10:46;18.50;93.10
27413;DHT22;14871;52.702;5.230;2023-03-17T16:13:12;18.40;92.60
27413;DHT22;14871;52.702;5.230;2023-03-17T16:15:40;18.40;92.80
27413;DHT22;14871;52.702;5.230;2023-03-17T16:18:17;18.30;92.50
27413;DHT22;14871;52.702;5.230;2023-03-17T16:20:45;18.30;92.50
27413;DHT22;14871;52.702;5.230;2023-03-17T16:23:21;18.30;92.80
27413;DHT22;14871;52.702;5.230;2023-03-17T16:25:48;18.40;93.20
27413;DHT22;14871;52.702;5.230;2023-03-17T16:28:22;18.40;93.20
27413;DHT22;14871;52.702;5.230;2023-03-17T16:30:49;18.50;93.30
27413;DHT22;14871;52.702;5.230;2023-03-17T16:33:16;18.50;93.60
27413;DHT22;14871;52.702;5.230;2023-03-17T16:35:43;18.50;93.00
27413;DHT22;14871;52.702;5.230;2023-03-17T16:38:11;18.50;93.30
27413;DHT22;14871;52.702;5.230;2023-03-17T16:40:37;18.40;92.90
27413;DHT22;14871;52.702;5.230;2023-03-17T16:43:18;18.40;93.00
27413;DHT22;14871;52.702;5.230;2023-03-17T16:45:44;18.10;92.50
27413;DHT22;14871;52.702;5.230;2023-03-17T16:48:12;18.00;93.10
27413;DHT22;14871;52.702;5.230;2023-03-17T16:50:41;17.80;93.30
27413;DHT22;14871;52.702;5.230;2023-03-17T16:53:07;17.90;93.60
27413;DHT22;14871;52.702;5.230;2023-03-17T16:55:33;17.80;93.90
27413;DHT22;14871;52.702;5.230;2023-03-17T16:58:03;17.80;93.80
27413;DHT22;14871;52.702;5.230;2023-03-17T17:00:30;17.90;93.70
27413;DHT22;14871;52.702;5.230;2023-03-17T17:02:57;17.80;93.70
27413;DHT22;14871;52.702;5.230;2023-03-17T17:05:28;17.90;93.70
27413;DHT22;14871;52.702;5.230;2023-03-17T17:07:54;17.90;93.50
27413;DHT22;14871;52.702;5.230;2023-03-17T17:10:22;17.90;93.80
27413;DHT22;14871;52.702;5.230;2023-03-17T17:12:49;17.90;93.80
27413;DHT22;14871;52.702;5.230;2023-03-17T17:15:16;17.80;94.00
27413;DHT22;14871;52.702;5.230;2023-03-17T17:17:48;17.80;94.10
27413;DHT22;14871;52.702;5.230;2023-03-17T17:20:21;17.80;94.10
27413;DHT22;14871;52.702;5.230;2023-03-17T17:22:48;17.70;94.00
27413;DHT22;14871;52.702;5.230;2023-03-17T17:25:14;17.60;94.10
27413;DHT22;14871;52.702;5.230;2023-03-17T17:27:41;17.60;94.20
27413;DHT22;14871;52.702;5.230;2023-03-17T17:30:10;17.50;94.20
27413;DHT22;14871;52.702;5.230;2023-03-17T17:32:36;17.50;94.20
27413;DHT22;14871;52.702;5.230;2023-03-17T17:35:02;17.40;94.20
27413;DHT22;14871;52.702;5.230;2023-03-17T17:37:27;17.40;94.30
27413;DHT22;14871;52.702;5.230;2023-03-17T17:39:53;17.30;94.30
27413;DHT22;14871;52.702;5.230;2023-03-17T17:42:19;17.30;94.40
27413;DHT22;14871;52.702;5.230;2023-03-17T17:44:45;17.20;94.60
27413;DHT22;14871;52.702;5.230;2023-03-17T17:47:11;17.20;94.90
27413;DHT22;14871;52.702;5.230;2023-03-17T17:49:37;17.10;95.00